sensor_id;sensor_type;location;lat;lon;timestamp;P1;durP1;ratioP1;P2;durP2;ratioP2
66874;SDS011;53784;52.630;4.896;2022-08-19T00:00:41;0.20;;;0.20;;
66874;SDS011;53784;52.630;4.896;2022-08-19T00:03:06;0.52;;;0.45;;
66874;SDS011;53784;52.630;4.896;2022-08-19T00:05:32;0.10;;;0.10;;
66874;SDS011;53784;52.630;4.896;2022-08-19T00:07:57;0.10;;;0.10;;
66874;SDS011;53784;52.630;4.896;2022-08-19T00:10:23;0.10;;;0.10;;
66874;SDS011;53784;52.630;4.896;2022-08-19T00:12:49;0.20;;;0.20;;
66874;SDS011;53784;52.630;4.896;2022-08-19T00:15:15;0.20;;;0.20;;
66874;SDS011;53784;52.630;4.896;2022-08-19T00:17:43;0.20;;;0.20;;
66874;SDS011;53784;52.630;4.896;2022-08-19T00:20:16;0.10;;;0.10;;
66874;SDS011;53784;52.630;4.896;2022-08-19T00:22:43;0.65;;;0.40;;
66874;SDS011;53784;52.630;4.896;2022-08-19T00:25:09;0.30;;;0.30;;
66874;SDS011;53784;52.630;4.896;2022-08-19T00:27:34;0.10;;;0.10;;
66874;SDS011;53784;52.630;4.896;2022-08-19T00:30:00;0.20;;;0.20;;
66874;SDS011;53784;52.630;4.896;2022-08-19T00:32:27;0.28;;;0.28;;
66874;SDS011;53784;52.630;4.896;2022-08-19T00:34:53;0.85;;;0.60;;
66874;SDS011;53784;52.630;4.896;2022-08-19T00:37:22;0.10;;;0.10;;
66874;SDS011;53784;52.630;4.896;2022-08-19T00:39:49;0.77;;;0.40;;
66874;SDS011;53784;52.630;4.896;2022-08-19T00:42:16;0.10;;;0.10;;
66874;SDS011;53784;52.630;4.896;2022-08-19T00:44:42;0.10;;;0.10;;
66874;SDS011;53784;52.630;4.896;2022-08-19T00:47:08;0.90;;;0.30;;
66874;SDS011;53784;52.630;4.896;2022-08-19T00:49:49;0.10;;;0.10;;
66874;SDS011;53784;52.630;4.896;2022-08-19T00:52:20;0.10;;;0.10;;
66874;SDS011;53784;52.630;4.896;2022-08-19T00:54:47;0.20;;;0.20;;
66874;SDS011;53784;52.630;4.896;2022-08-19T00:57:15;0.35;;;0.20;;
66874;SDS011;53784;52.630;4.896;2022-08-19T00:59:43;0.15;;;0.15;;
66874;SDS011;53784;52.630;4.896;2022-08-19T01:02:11;0.10;;;0.10;;
66874;SDS011;53784;52.630;4.896;2022-08-19T01:04:37;0.35;;;0.35;;
66874;SDS011;53784;52.630;4.896;2022-08-19T01:07:02;0.30;;;0.30;;
66874;SDS011;53784;52.630;4.896;2022-08-19T01:09:28;0.50;;;0.40;;
66874;SDS011;53784;52.630;4.896;2022-08-19T01:11:54;0.10;;;0.10;;
66874;SDS011;53784;52.630;4.896;2022-08-19T01:14:20;0.10;;;0.10;;
66874;SDS011;53784;52.630;4.896;2022-08-19T01:16:45;0.20;;;0.20;;
66874;SDS011;53784;52.630;4.896;2022-08-19T01:19:19;0.10;;;0.10;;
66874;SDS011;53784;52.630;4.896;2022-08-19T01:21:58;0.10;;;0.10;;
66874;SDS011;53784;52.630;4.896;2022-08-19T01:24:27;0.57;;;0.25;;
66874;SDS011;53784;52.630;4.896;2022-08-19T01:26:53;0.20;;;0.20;;
66874;SDS011;53784;52.630;4.896;2022-08-19T01:29:19;0.20;;;0.20;;
66874;SDS011;53784;52.630;4.896;2022-08-19T01:31:45;0.30;;;0.30;;
66874;SDS011;53784;52.630;4.896;2022-08-19T01:34:10;0.10;;;0.10;;
66874;SDS011;53784;52.630;4.896;2022-08-19T01:36:37;0.20;;;0.20;;
66874;SDS011;53784;52.630;4.896;2022-08-19T01:39:09;0.10;;;0.10;;
66874;SDS011;53784;52.630;4.896;2022-08-19T01:41:35;0.10;;;0.10;;
66874;SDS011;53784;52.630;4.896;2022-08-19T01:44:02;0.30;;;0.30;;
66874;SDS011;53784;52.630;4.896;2022-08-19T01:46:29;0.10;;;0.10;;
66874;SDS011;53784;52.630;4.896;2022-08-19T01:48:54;0.20;;;0.20;;
66874;SDS011;53784;52.630;4.896;2022-08-19T01:51:20;0.20;;;0.20;;
66874;SDS011;53784;52.630;4.896;2022-08-19T01:53:50;0.22;;;0.22;;
66874;SDS011;53784;52.630;4.896;2022-08-19T01:56:16;0.20;;;0.20;;
66874;SDS011;53784;52.630;4.896;2022-08-19T01:58:44;0.20;;;0.20;;
66874;SDS011;53784;52.630;4.896;2022-08-19T02:01:12;0.20;;;0.20;;
66874;SDS011;53784;52.630;4.896;2022-08-19T02:03:38;0.28;;;0.20;;
66874;SDS011;53784;52.630;4.896;2022-08-19T02:06:04;0.28;;;0.28;;
66874;SDS011;53784;52.630;4.896;2022-08-19T02:08:30;0.10;;;0.10;;
66874;SDS011;53784;52.630;4.896;2022-08-19T02:10:57;0.30;;;0.20;;
66874;SDS011;53784;52.630;4.896;2022-08-19T02:13:23;0.10;;;0.10;;
66874;SDS011;53784;52.630;4.896;2022-08-19T02:15:49;0.10;;;0.10;;
66874;SDS011;53784;52.630;4.896;2022-08-19T02:18:14;0.10;;;0.10;;
66874;SDS011;53784;52.630;4.896;2022-08-19T02:20:40;0.20;;;0.20;;
66874;SDS011;53784;52.630;4.896;2022-08-19T02:23:06;0.20;;;0.17;;
66874;SDS011;53784;52.630;4.896;2022-08-19T02:25:32;0.13;;;0.13;;
66874;SDS011;53784;52.630;4.896;2022-08-19T02:27:57;0.45;;;0.30;;
66874;SDS011;53784;52.630;4.896;2022-08-19T02:30:23;0.20;;;0.20;;
66874;SDS011;53784;52.630;4.896;2022-08-19T02:32:49;0.20;;;0.20;;
66874;SDS011;53784;52.630;4.896;2022-08-19T02:35:15;0.22;;;0.22;;
66874;SDS011;53784;52.630;4.896;2022-08-19T02:37:41;0.17;;;0.17;;
66874;SDS011;53784;52.630;4.896;2022-08-19T02:40:26;0.10;;;0.10;;
66874;SDS011;53784;52.630;4.896;2022-08-19T02:42:52;0.20;;;0.20;;
66874;SDS011;53784;52.630;4.896;2022-08-19T02:45:17;0.20;;;0.20;;
66874;SDS011;53784;52.630;4.896;2022-08-19T02:47:43;0.85;;;0.47;;
66874;SDS011;53784;52.630;4.896;2022-08-19T02:50:08;0.40;;;0.28;;
66874;SDS011;53784;52.630;4.896;2022-08-19T02:52:34;0.28;;;0.28;;
66874;SDS011;53784;52.630;4.896;2022-08-19T02:54:59;0.30;;;0.30;;
66874;SDS011;53784;52.630;4.896;2022-08-19T02:57:25;0.60;;;0.28;;
66874;SDS011;53784;52.630;4.896;2022-08-19T02:59:51;1.38;;;0.40;;
66874;SDS011;53784;52.630;4.896;2022-08-19T03:02:18;0.30;;;0.30;;
66874;SDS011;53784;52.630;4.896;2022-08-19T03:04:43;0.30;;;0.30;;
66874;SDS011;53784;52.630;4.896;2022-08-19T03:07:09;0.13;;;0.13;;
66874;SDS011;53784;52.630;4.896;2022-08-19T03:09:38;0.20;;;0.20;;
66874;SDS011;53784;52.630;4.896;2022-08-19T03:12:04;0.32;;;0.30;;
66874;SDS011;53784;52.630;4.896;2022-08-19T03:14:30;0.38;;;0.28;;
66874;SDS011;53784;52.630;4.896;2022-08-19T03:16:56;0.30;;;0.20;;
66874;SDS011;53784;52.630;4.896;2022-08-19T03:19:22;0.20;;;0.20;;
66874;SDS011;53784;52.630;4.896;2022-08-19T03:21:47;0.20;;;0.20;;
66874;SDS011;53784;52.630;4.896;2022-08-19T03:24:13;0.50;;;0.50;;
66874;SDS011;53784;52.630;4.896;2022-08-19T03:26:41;0.25;;;0.25;;
66874;SDS011;53784;52.630;4.896;2022-08-19T03:29:07;0.88;;;0.40;;
66874;SDS011;53784;52.630;4.896;2022-08-19T03:31:34;0.63;;;0.20;;
66874;SDS011;53784;52.630;4.896;2022-08-19T03:33:59;0.43;;;0.22;;
66874;SDS011;53784;52.630;4.896;2022-08-19T03:36:25;0.10;;;0.10;;
66874;SDS011;53784;52.630;4.896;2022-08-19T03:38:53;0.40;;;0.40;;
66874;SDS011;53784;52.630;4.896;2022-08-19T03:41:22;0.30;;;0.30;;
66874;SDS011;53784;52.630;4.896;2022-08-19T03:43:48;0.30;;;0.22;;
66874;SDS011;53784;52.630;4.896;2022-08-19T03:46:18;0.20;;;0.20;;
66874;SDS011;53784;52.630;4.896;2022-08-19T03:48:45;0.60;;;0.43;;
66874;SDS011;53784;52.630;4.896;2022-08-19T03:51:22;0.10;;;0.10;;
66874;SDS011;53784;52.630;4.896;2022-08-19T03:53:52;0.30;;;0.30;;
66874;SDS011;53784;52.630;4.896;2022-08-19T03:56:18;0.20;;;0.20;;
66874;SDS011;53784;52.630;4.896;2022-08-19T03:58:44;0.65;;;0.20;;
66874;SDS011;53784;52.630;4.896;2022-08-19T04:01:11;0.20;;;0.20;;
66874;SDS011;53784;52.630;4.896;2022-08-19T04:03:40;0.28;;;0.28;;
66874;SDS011;53784;52.630;4.896;2022-08-19T04:06:39;0.20;;;0.20;;
66874;SDS011;53784;52.630;4.896;2022-08-19T04:08:59;0.13;;;0.13;;
66874;SDS011;53784;52.630;4.896;2022-08-19T04:11:28;0.30;;;0.30;;
66874;SDS011;53784;52.630;4.896;2022-08-19T04:13:56;0.20;;;0.20;;
66874;SDS011;53784;52.630;4.896;2022-08-19T04:16:22;0.82;;;0.60;;
66874;SDS011;53784;52.630;4.896;2022-08-19T04:18:48;0.30;;;0.30;;
66874;SDS011;53784;52.630;4.896;2022-08-19T04:21:25;0.20;;;0.20;;
66874;SDS011;53784;52.630;4.896;2022-08-19T04:23:51;0.20;;;0.20;;
66874;SDS011;53784;52.630;4.896;2022-08-19T04:26:18;0.20;;;0.20;;
66874;SDS011;53784;52.630;4.896;2022-08-19T04:28:48;0.32;;;0.32;;
66874;SDS011;53784;52.630;4.896;2022-08-19T04:31:24;0.30;;;0.30;;
66874;SDS011;53784;52.630;4.896;2022-08-19T04:33:54;0.40;;;0.40;;
66874;SDS011;53784;52.630;4.896;2022-08-19T04:36:22;0.30;;;0.30;;
66874;SDS011;53784;52.630;4.896;2022-08-19T04:38:53;0.40;;;0.40;;
66874;SDS011;53784;52.630;4.896;2022-08-19T04:41:19;0.20;;;0.20;;
66874;SDS011;53784;52.630;4.896;2022-08-19T04:44:04;0.85;;;0.60;;
66874;SDS011;53784;52.630;4.896;2022-08-19T04:46:29;0.38;;;0.30;;
66874;SDS011;53784;52.630;4.896;2022-08-19T04:48:57;0.25;;;0.25;;
66874;SDS011;53784;52.630;4.896;2022-08-19T04:51:23;0.80;;;0.50;;
66874;SDS011;53784;52.630;4.896;2022-08-19T04:53:48;0.20;;;0.20;;
66874;SDS011;53784;52.630;4.896;2022-08-19T04:56:16;0.30;;;0.30;;
66874;SDS011;53784;52.630;4.896;2022-08-19T04:58:42;0.22;;;0.20;;
66874;SDS011;53784;52.630;4.896;2022-08-19T05:01:11;0.32;;;0.28;;
66874;SDS011;53784;52.630;4.896;2022-08-19T05:03:43;0.32;;;0.30;;
66874;SDS011;53784;52.630;4.896;2022-08-19T05:06:10;0.35;;;0.30;;
66874;SDS011;53784;52.630;4.896;2022-08-19T05:08:37;0.10;;;0.10;;
66874;SDS011;53784;52.630;4.896;2022-08-19T05:13:36;0.50;;;0.38;;
66874;SDS011;53784;52.630;4.896;2022-08-19T05:16:01;0.22;;;0.22;;
66874;SDS011;53784;52.630;4.896;2022-08-19T05:18:26;0.20;;;0.20;;
66874;SDS011;53784;52.630;4.896;2022-08-19T05:21:11;0.25;;;0.20;;
66874;SDS011;53784;52.630;4.896;2022-08-19T05:23:57;0.35;;;0.30;;
66874;SDS011;53784;52.630;4.896;2022-08-19T05:26:23;0.20;;;0.20;;
66874;SDS011;53784;52.630;4.896;2022-08-19T05:28:51;0.30;;;0.30;;
66874;SDS011;53784;52.630;4.896;2022-08-19T05:31:19;0.20;;;0.20;;
66874;SDS011;53784;52.630;4.896;2022-08-19T05:33:44;0.20;;;0.20;;
66874;SDS011;53784;52.630;4.896;2022-08-19T05:36:10;0.20;;;0.20;;
66874;SDS011;53784;52.630;4.896;2022-08-19T05:38:35;0.80;;;0.55;;
66874;SDS011;53784;52.630;4.896;2022-08-19T05:41:05;0.43;;;0.43;;
66874;SDS011;53784;52.630;4.896;2022-08-19T05:43:32;0.20;;;0.20;;
66874;SDS011;53784;52.630;4.896;2022-08-19T05:45:58;0.40;;;0.35;;
66874;SDS011;53784;52.630;4.896;2022-08-19T05:48:23;0.20;;;0.20;;
66874;SDS011;53784;52.630;4.896;2022-08-19T05:50:48;0.30;;;0.30;;
66874;SDS011;53784;52.630;4.896;2022-08-19T05:53:15;0.30;;;0.20;;
66874;SDS011;53784;52.630;4.896;2022-08-19T05:55:41;0.30;;;0.30;;
66874;SDS011;53784;52.630;4.896;2022-08-19T05:58:06;0.30;;;0.30;;
66874;SDS011;53784;52.630;4.896;2022-08-19T06:00:32;0.30;;;0.30;;
66874;SDS011;53784;52.630;4.896;2022-08-19T06:02:58;0.30;;;0.30;;
66874;SDS011;53784;52.630;4.896;2022-08-19T06:05:27;0.55;;;0.50;;
66874;SDS011;53784;52.630;4.896;2022-08-19T06:07:53;0.20;;;0.20;;
66874;SDS011;53784;52.630;4.896;2022-08-19T06:10:19;0.47;;;0.47;;
66874;SDS011;53784;52.630;4.896;2022-08-19T06:12:45;0.25;;;0.20;;
66874;SDS011;53784;52.630;4.896;2022-08-19T06:15:11;0.40;;;0.30;;
66874;SDS011;53784;52.630;4.896;2022-08-19T06:17:38;0.30;;;0.30;;
66874;SDS011;53784;52.630;4.896;2022-08-19T06:20:04;2.38;;;0.60;;
66874;SDS011;53784;52.630;4.896;2022-08-19T06:22:31;1.00;;;0.70;;
66874;SDS011;53784;52.630;4.896;2022-08-19T06:24:56;0.68;;;0.40;;
66874;SDS011;53784;52.630;4.896;2022-08-19T06:27:22;0.50;;;0.40;;
66874;SDS011;53784;52.630;4.896;2022-08-19T06:29:48;0.93;;;0.60;;
66874;SDS011;53784;52.630;4.896;2022-08-19T06:32:14;0.65;;;0.55;;
66874;SDS011;53784;52.630;4.896;2022-08-19T06:34:41;0.40;;;0.40;;
66874;SDS011;53784;52.630;4.896;2022-08-19T06:37:06;0.77;;;0.60;;
66874;SDS011;53784;52.630;4.896;2022-08-19T06:39:33;0.98;;;0.50;;
66874;SDS011;53784;52.630;4.896;2022-08-19T06:42:02;1.02;;;0.60;;
66874;SDS011;53784;52.630;4.896;2022-08-19T06:44:31;0.63;;;0.60;;
66874;SDS011;53784;52.630;4.896;2022-08-19T06:46:59;0.40;;;0.40;;
66874;SDS011;53784;52.630;4.896;2022-08-19T06:49:27;0.70;;;0.50;;
66874;SDS011;53784;52.630;4.896;2022-08-19T06:51:56;0.50;;;0.50;;
66874;SDS011;53784;52.630;4.896;2022-08-19T06:54:22;0.40;;;0.40;;
66874;SDS011;53784;52.630;4.896;2022-08-19T06:56:48;1.05;;;0.50;;
66874;SDS011;53784;52.630;4.896;2022-08-19T06:59:15;0.60;;;0.40;;
66874;SDS011;53784;52.630;4.896;2022-08-19T07:01:49;0.55;;;0.45;;
66874;SDS011;53784;52.630;4.896;2022-08-19T07:04:26;0.57;;;0.40;;
66874;SDS011;53784;52.630;4.896;2022-08-19T07:06:57;0.80;;;0.50;;
66874;SDS011;53784;52.630;4.896;2022-08-19T07:09:28;0.82;;;0.50;;
66874;SDS011;53784;52.630;4.896;2022-08-19T07:11:53;0.70;;;0.60;;
66874;SDS011;53784;52.630;4.896;2022-08-19T07:14:20;0.70;;;0.50;;
66874;SDS011;53784;52.630;4.896;2022-08-19T07:16:48;1.00;;;0.70;;
66874;SDS011;53784;52.630;4.896;2022-08-19T07:19:14;0.88;;;0.73;;
66874;SDS011;53784;52.630;4.896;2022-08-19T07:21:40;1.33;;;0.75;;
66874;SDS011;53784;52.630;4.896;2022-08-19T07:24:06;0.60;;;0.40;;
66874;SDS011;53784;52.630;4.896;2022-08-19T07:26:33;0.93;;;0.63;;
66874;SDS011;53784;52.630;4.896;2022-08-19T07:29:00;1.45;;;0.95;;
66874;SDS011;53784;52.630;4.896;2022-08-19T07:31:26;0.60;;;0.50;;
66874;SDS011;53784;52.630;4.896;2022-08-19T07:33:52;0.60;;;0.50;;
66874;SDS011;53784;52.630;4.896;2022-08-19T07:36:21;0.70;;;0.50;;
66874;SDS011;53784;52.630;4.896;2022-08-19T07:38:49;0.77;;;0.50;;
66874;SDS011;53784;52.630;4.896;2022-08-19T07:41:17;0.68;;;0.50;;
66874;SDS011;53784;52.630;4.896;2022-08-19T07:43:43;0.60;;;0.40;;
66874;SDS011;53784;52.630;4.896;2022-08-19T07:46:11;0.70;;;0.60;;
66874;SDS011;53784;52.630;4.896;2022-08-19T07:48:38;0.70;;;0.60;;
66874;SDS011;53784;52.630;4.896;2022-08-19T07:51:04;0.80;;;0.60;;
66874;SDS011;53784;52.630;4.896;2022-08-19T07:53:32;0.57;;;0.43;;
66874;SDS011;53784;52.630;4.896;2022-08-19T07:55:58;0.80;;;0.60;;
66874;SDS011;53784;52.630;4.896;2022-08-19T07:58:26;0.80;;;0.50;;
66874;SDS011;53784;52.630;4.896;2022-08-19T08:00:52;0.80;;;0.52;;
66874;SDS011;53784;52.630;4.896;2022-08-19T08:03:18;1.00;;;0.65;;
66874;SDS011;53784;52.630;4.896;2022-08-19T08:05:45;0.80;;;0.52;;
66874;SDS011;53784;52.630;4.896;2022-08-19T08:08:30;0.80;;;0.50;;
66874;SDS011;53784;52.630;4.896;2022-08-19T08:11:02;0.93;;;0.63;;
66874;SDS011;53784;52.630;4.896;2022-08-19T08:13:28;0.80;;;0.60;;
66874;SDS011;53784;52.630;4.896;2022-08-19T08:15:54;0.63;;;0.50;;
66874;SDS011;53784;52.630;4.896;2022-08-19T08:18:20;0.70;;;0.50;;
66874;SDS011;53784;52.630;4.896;2022-08-19T08:20:45;0.80;;;0.60;;
66874;SDS011;53784;52.630;4.896;2022-08-19T08:23:11;0.60;;;0.50;;
66874;SDS011;53784;52.630;4.896;2022-08-19T08:25:54;0.50;;;0.47;;
66874;SDS011;53784;52.630;4.896;2022-08-19T08:28:21;0.70;;;0.50;;
66874;SDS011;53784;52.630;4.896;2022-08-19T08:30:47;0.93;;;0.63;;
66874;SDS011;53784;52.630;4.896;2022-08-19T08:33:14;0.88;;;0.52;;
66874;SDS011;53784;52.630;4.896;2022-08-19T08:35:43;0.90;;;0.60;;
66874;SDS011;53784;52.630;4.896;2022-08-19T08:38:10;1.20;;;0.70;;
66874;SDS011;53784;52.630;4.896;2022-08-19T08:40:42;1.20;;;0.70;;
66874;SDS011;53784;52.630;4.896;2022-08-19T08:45:47;0.88;;;0.50;;
66874;SDS011;53784;52.630;4.896;2022-08-19T08:48:37;0.93;;;0.57;;
66874;SDS011;53784;52.630;4.896;2022-08-19T08:51:19;1.10;;;0.60;;
66874;SDS011;53784;52.630;4.896;2022-08-19T08:53:47;1.05;;;0.60;;
66874;SDS011;53784;52.630;4.896;2022-08-19T08:56:13;0.98;;;0.60;;
66874;SDS011;53784;52.630;4.896;2022-08-19T08:58:42;1.00;;;0.60;;
66874;SDS011;53784;52.630;4.896;2022-08-19T09:01:13;1.05;;;0.60;;
66874;SDS011;53784;52.630;4.896;2022-08-19T09:03:39;1.10;;;0.60;;
66874;SDS011;53784;52.630;4.896;2022-08-19T09:06:19;1.15;;;0.63;;
66874;SDS011;53784;52.630;4.896;2022-08-19T09:16:49;0.97;;;0.60;;
66874;SDS011;53784;52.630;4.896;2022-08-19T09:19:16;1.10;;;0.60;;
66874;SDS011;53784;52.630;4.896;2022-08-19T09:21:42;1.30;;;0.70;;
66874;SDS011;53784;52.630;4.896;2022-08-19T09:24:07;1.27;;;0.70;;
66874;SDS011;53784;52.630;4.896;2022-08-19T09:26:33;1.43;;;0.70;;
66874;SDS011;53784;52.630;4.896;2022-08-19T09:28:59;1.60;;;0.80;;
66874;SDS011;53784;52.630;4.896;2022-08-19T09:31:26;1.65;;;0.90;;
66874;SDS011;53784;52.630;4.896;2022-08-19T09:33:53;1.70;;;1.05;;
66874;SDS011;53784;52.630;4.896;2022-08-19T09:36:22;1.80;;;1.20;;
66874;SDS011;53784;52.630;4.896;2022-08-19T09:38:48;1.90;;;1.40;;
66874;SDS011;53784;52.630;4.896;2022-08-19T09:41:19;1.80;;;1.10;;
66874;SDS011;53784;52.630;4.896;2022-08-19T09:43:46;1.42;;;0.80;;
66874;SDS011;53784;52.630;4.896;2022-08-19T09:46:14;1.20;;;0.70;;
66874;SDS011;53784;52.630;4.896;2022-08-19T09:48:41;1.00;;;0.70;;
66874;SDS011;53784;52.630;4.896;2022-08-19T09:51:08;0.80;;;0.60;;
66874;SDS011;53784;52.630;4.896;2022-08-19T09:53:35;0.60;;;0.50;;
66874;SDS011;53784;52.630;4.896;2022-08-19T09:56:01;0.60;;;0.45;;
66874;SDS011;53784;52.630;4.896;2022-08-19T09:58:27;0.70;;;0.50;;
66874;SDS011;53784;52.630;4.896;2022-08-19T10:00:55;0.90;;;0.60;;
66874;SDS011;53784;52.630;4.896;2022-08-19T10:03:21;1.20;;;0.70;;
66874;SDS011;53784;52.630;4.896;2022-08-19T10:05:46;1.00;;;0.60;;
66874;SDS011;53784;52.630;4.896;2022-08-19T10:08:22;0.90;;;0.60;;
66874;SDS011;53784;52.630;4.896;2022-08-19T10:10:50;1.00;;;0.60;;
66874;SDS011;53784;52.630;4.896;2022-08-19T10:13:16;1.33;;;0.70;;
66874;SDS011;53784;52.630;4.896;2022-08-19T10:15:43;1.63;;;0.80;;
66874;SDS011;53784;52.630;4.896;2022-08-19T10:18:08;1.40;;;0.70;;
66874;SDS011;53784;52.630;4.896;2022-08-19T10:20:33;1.20;;;0.70;;
66874;SDS011;53784;52.630;4.896;2022-08-19T10:23:00;1.40;;;0.80;;
66874;SDS011;53784;52.630;4.896;2022-08-19T10:25:26;1.60;;;0.80;;
66874;SDS011;53784;52.630;4.896;2022-08-19T10:27:52;1.70;;;1.10;;
66874;SDS011;53784;52.630;4.896;2022-08-19T10:30:18;1.70;;;1.20;;
66874;SDS011;53784;52.630;4.896;2022-08-19T10:32:43;2.05;;;1.40;;
66874;SDS011;53784;52.630;4.896;2022-08-19T10:35:10;1.80;;;1.20;;
66874;SDS011;53784;52.630;4.896;2022-08-19T10:37:36;1.80;;;1.10;;
66874;SDS011;53784;52.630;4.896;2022-08-19T10:40:03;2.05;;;1.05;;
66874;SDS011;53784;52.630;4.896;2022-08-19T10:42:30;1.40;;;0.70;;
66874;SDS011;53784;52.630;4.896;2022-08-19T10:44:56;1.23;;;0.68;;
66874;SDS011;53784;52.630;4.896;2022-08-19T10:47:22;0.80;;;0.50;;
66874;SDS011;53784;52.630;4.896;2022-08-19T10:49:48;0.93;;;0.60;;
66874;SDS011;53784;52.630;4.896;2022-08-19T10:52:32;1.30;;;0.70;;
66874;SDS011;53784;52.630;4.896;2022-08-19T10:55:01;1.40;;;0.80;;
66874;SDS011;53784;52.630;4.896;2022-08-19T10:57:46;1.58;;;0.90;;
66874;SDS011;53784;52.630;4.896;2022-08-19T11:00:11;1.30;;;0.70;;
66874;SDS011;53784;52.630;4.896;2022-08-19T11:02:38;1.30;;;0.70;;
66874;SDS011;53784;52.630;4.896;2022-08-19T11:05:04;1.00;;;0.60;;
66874;SDS011;53784;52.630;4.896;2022-08-19T11:07:30;0.98;;;0.60;;
66874;SDS011;53784;52.630;4.896;2022-08-19T11:09:55;1.00;;;0.60;;
66874;SDS011;53784;52.630;4.896;2022-08-19T11:12:21;0.80;;;0.50;;
66874;SDS011;53784;52.630;4.896;2022-08-19T11:14:46;1.00;;;0.70;;
66874;SDS011;53784;52.630;4.896;2022-08-19T11:17:14;0.90;;;0.50;;
66874;SDS011;53784;52.630;4.896;2022-08-19T11:19:40;0.90;;;0.60;;
66874;SDS011;53784;52.630;4.896;2022-08-19T11:22:07;1.10;;;0.60;;
66874;SDS011;53784;52.630;4.896;2022-08-19T11:24:34;1.30;;;0.70;;
66874;SDS011;53784;52.630;4.896;2022-08-19T11:27:02;1.10;;;0.60;;
66874;SDS011;53784;52.630;4.896;2022-08-19T11:29:33;1.20;;;0.70;;
66874;SDS011;53784;52.630;4.896;2022-08-19T11:32:00;0.90;;;0.60;;
66874;SDS011;53784;52.630;4.896;2022-08-19T11:34:29;0.80;;;0.50;;
66874;SDS011;53784;52.630;4.896;2022-08-19T11:36:55;1.10;;;0.63;;
66874;SDS011;53784;52.630;4.896;2022-08-19T11:39:25;0.90;;;0.57;;
66874;SDS011;53784;52.630;4.896;2022-08-19T11:41:52;0.75;;;0.50;;
66874;SDS011;53784;52.630;4.896;2022-08-19T11:44:17;0.70;;;0.50;;
66874;SDS011;53784;52.630;4.896;2022-08-19T11:46:43;0.68;;;0.50;;
66874;SDS011;53784;52.630;4.896;2022-08-19T11:49:11;0.40;;;0.40;;
66874;SDS011;53784;52.630;4.896;2022-08-19T11:51:41;0.73;;;0.50;;
66874;SDS011;53784;52.630;4.896;2022-08-19T11:54:08;0.47;;;0.40;;
66874;SDS011;53784;52.630;4.896;2022-08-19T11:56:36;0.50;;;0.40;;
66874;SDS011;53784;52.630;4.896;2022-08-19T11:59:02;0.65;;;0.50;;
66874;SDS011;53784;52.630;4.896;2022-08-19T12:01:28;0.50;;;0.40;;
66874;SDS011;53784;52.630;4.896;2022-08-19T12:03:54;0.70;;;0.40;;
66874;SDS011;53784;52.630;4.896;2022-08-19T12:06:28;0.45;;;0.40;;
66874;SDS011;53784;52.630;4.896;2022-08-19T12:08:57;0.50;;;0.40;;
66874;SDS011;53784;52.630;4.896;2022-08-19T12:11:24;0.68;;;0.50;;
66874;SDS011;53784;52.630;4.896;2022-08-19T12:13:50;0.50;;;0.40;;
66874;SDS011;53784;52.630;4.896;2022-08-19T12:16:17;0.60;;;0.50;;
66874;SDS011;53784;52.630;4.896;2022-08-19T12:18:44;0.50;;;0.40;;
66874;SDS011;53784;52.630;4.896;2022-08-19T12:21:11;0.60;;;0.40;;
66874;SDS011;53784;52.630;4.896;2022-08-19T12:23:38;0.50;;;0.40;;
66874;SDS011;53784;52.630;4.896;2022-08-19T12:26:05;0.60;;;0.40;;
66874;SDS011;53784;52.630;4.896;2022-08-19T12:28:30;0.77;;;0.50;;
66874;SDS011;53784;52.630;4.896;2022-08-19T12:30:56;0.75;;;0.52;;
66874;SDS011;53784;52.630;4.896;2022-08-19T12:33:21;0.60;;;0.50;;
66874;SDS011;53784;52.630;4.896;2022-08-19T12:35:49;0.60;;;0.50;;
66874;SDS011;53784;52.630;4.896;2022-08-19T12:38:15;0.60;;;0.50;;
66874;SDS011;53784;52.630;4.896;2022-08-19T12:40:41;0.60;;;0.40;;
66874;SDS011;53784;52.630;4.896;2022-08-19T12:43:07;0.65;;;0.50;;
66874;SDS011;53784;52.630;4.896;2022-08-19T12:45:33;0.60;;;0.50;;
66874;SDS011;53784;52.630;4.896;2022-08-19T12:47:59;0.65;;;0.50;;
66874;SDS011;53784;52.630;4.896;2022-08-19T12:50:24;0.60;;;0.50;;
66874;SDS011;53784;52.630;4.896;2022-08-19T12:52:50;0.50;;;0.40;;
66874;SDS011;53784;52.630;4.896;2022-08-19T12:55:15;0.60;;;0.50;;
66874;SDS011;53784;52.630;4.896;2022-08-19T12:57:43;0.70;;;0.50;;
66874;SDS011;53784;52.630;4.896;2022-08-19T13:00:10;0.50;;;0.50;;
66874;SDS011;53784;52.630;4.896;2022-08-19T13:02:46;0.77;;;0.50;;
66874;SDS011;53784;52.630;4.896;2022-08-19T13:05:15;0.70;;;0.50;;
66874;SDS011;53784;52.630;4.896;2022-08-19T13:07:44;0.65;;;0.50;;
66874;SDS011;53784;52.630;4.896;2022-08-19T13:10:11;0.50;;;0.40;;
66874;SDS011;53784;52.630;4.896;2022-08-19T13:12:37;0.40;;;0.40;;
66874;SDS011;53784;52.630;4.896;2022-08-19T13:15:04;0.40;;;0.40;;
66874;SDS011;53784;52.630;4.896;2022-08-19T13:17:30;0.30;;;0.30;;
66874;SDS011;53784;52.630;4.896;2022-08-19T13:19:55;0.40;;;0.40;;
66874;SDS011;53784;52.630;4.896;2022-08-19T13:22:20;0.50;;;0.40;;
66874;SDS011;53784;52.630;4.896;2022-08-19T13:24:45;0.30;;;0.30;;
66874;SDS011;53784;52.630;4.896;2022-08-19T13:27:11;0.40;;;0.40;;
66874;SDS011;53784;52.630;4.896;2022-08-19T13:29:36;0.30;;;0.30;;
66874;SDS011;53784;52.630;4.896;2022-08-19T13:32:20;0.40;;;0.40;;
66874;SDS011;53784;52.630;4.896;2022-08-19T13:35:04;0.30;;;0.30;;
66874;SDS011;53784;52.630;4.896;2022-08-19T13:37:30;0.30;;;0.30;;
66874;SDS011;53784;52.630;4.896;2022-08-19T13:40:08;0.30;;;0.30;;
66874;SDS011;53784;52.630;4.896;2022-08-19T13:42:40;0.30;;;0.30;;
66874;SDS011;53784;52.630;4.896;2022-08-19T13:45:06;0.30;;;0.30;;
66874;SDS011;53784;52.630;4.896;2022-08-19T13:47:33;0.40;;;0.40;;
66874;SDS011;53784;52.630;4.896;2022-08-19T13:50:07;0.75;;;0.50;;
66874;SDS011;53784;52.630;4.896;2022-08-19T13:52:33;0.30;;;0.30;;
66874;SDS011;53784;52.630;4.896;2022-08-19T13:54:58;0.30;;;0.30;;
66874;SDS011;53784;52.630;4.896;2022-08-19T13:57:23;0.30;;;0.30;;
66874;SDS011;53784;52.630;4.896;2022-08-19T13:59:49;0.43;;;0.40;;
66874;SDS011;53784;52.630;4.896;2022-08-19T14:02:14;0.30;;;0.30;;
66874;SDS011;53784;52.630;4.896;2022-08-19T14:04:39;0.30;;;0.30;;
66874;SDS011;53784;52.630;4.896;2022-08-19T14:07:05;0.30;;;0.30;;
66874;SDS011;53784;52.630;4.896;2022-08-19T14:09:30;0.30;;;0.30;;
66874;SDS011;53784;52.630;4.896;2022-08-19T14:11:55;0.40;;;0.40;;
66874;SDS011;53784;52.630;4.896;2022-08-19T14:14:21;0.50;;;0.40;;
66874;SDS011;53784;52.630;4.896;2022-08-19T14:16:47;0.30;;;0.30;;
66874;SDS011;53784;52.630;4.896;2022-08-19T14:19:13;0.30;;;0.30;;
66874;SDS011;53784;52.630;4.896;2022-08-19T14:21:38;0.38;;;0.38;;
66874;SDS011;53784;52.630;4.896;2022-08-19T14:24:05;0.40;;;0.30;;
66874;SDS011;53784;52.630;4.896;2022-08-19T14:26:32;0.60;;;0.40;;
66874;SDS011;53784;52.630;4.896;2022-08-19T14:28:57;0.30;;;0.30;;
66874;SDS011;53784;52.630;4.896;2022-08-19T14:31:23;0.30;;;0.30;;
66874;SDS011;53784;52.630;4.896;2022-08-19T14:33:49;0.40;;;0.40;;
66874;SDS011;53784;52.630;4.896;2022-08-19T14:36:15;0.22;;;0.22;;
66874;SDS011;53784;52.630;4.896;2022-08-19T14:38:41;0.35;;;0.30;;
66874;SDS011;53784;52.630;4.896;2022-08-19T14:43:42;0.30;;;0.30;;
66874;SDS011;53784;52.630;4.896;2022-08-19T14:46:11;0.40;;;0.40;;
66874;SDS011;53784;52.630;4.896;2022-08-19T14:48:37;0.30;;;0.30;;
66874;SDS011;53784;52.630;4.896;2022-08-19T14:51:03;0.30;;;0.30;;
66874;SDS011;53784;52.630;4.896;2022-08-19T14:53:29;0.30;;;0.30;;
66874;SDS011;53784;52.630;4.896;2022-08-19T14:55:55;0.30;;;0.30;;
66874;SDS011;53784;52.630;4.896;2022-08-19T14:58:20;0.30;;;0.30;;
66874;SDS011;53784;52.630;4.896;2022-08-19T15:00:45;0.30;;;0.30;;
66874;SDS011;53784;52.630;4.896;2022-08-19T15:03:11;0.30;;;0.30;;
66874;SDS011;53784;52.630;4.896;2022-08-19T15:05:38;0.40;;;0.40;;